Time;durP1;ratioP1;P1;durP2;ratioP2;P2;SDS_P1;SDS_P2;PMS_P1;PMS_P2;Temp;Humidity;BMP_temperature;BMP_pressure;BME280_temperature;BME280_humidity;BME280_pressure;Samples;Min_cycle;Max_cycle;Signal;HPM_P1;HPM_P2
2023/03/02 00:00:59;;;;;;;16.33;8.20;;;;;;;;;;6188600;23;20009;-93
2023/03/02 00:03:28;;;;;;;20.50;9.05;;;;;;;;;;6188384;23;20009;-93
2023/03/02 00:05:56;;;;;;;16.15;8.07;;;;;;;;;;6164186;23;20020;-94
2023/03/02 00:08:22;;;;;;;15.18;8.02;;;;;;;;;;6163117;23;20009;-93
2023/03/02 00:10:48;;;;;;;16.60;9.25;;;;;;;;;;6186883;23;20005;-93
2023/03/02 00:13:17;;;;;;;20.60;8.93;;;;;;;;;;6162657;23;20001;-93
2023/03/02 00:15:44;;;;;;;15.55;8.00;;;;;;;;;;6163157;23;20032;-93
2023/03/02 00:18:10;;;;;;;14.93;8.38;;;;;;;;;;6164367;23;20092;-92
2023/03/02 00:20:37;;;;;;;13.80;7.78;;;;;;;;;;6190364;23;20009;-93
2023/03/02 00:23:03;;;;;;;15.65;8.38;;;;;;;;;;6189197;23;20147;-93
2023/03/02 00:25:30;;;;;;;14.07;7.30;;;;;;;;;;6189067;23;20001;-93
2023/03/02 00:27:59;;;;;;;15.73;7.88;;;;;;;;;;6189810;23;20009;-93
2023/03/02 00:30:25;;;;;;;15.23;8.20;;;;;;;;;;6166168;23;20005;-93
2023/03/02 00:32:51;;;;;;;14.25;7.80;;;;;;;;;;6192031;23;20081;-93
2023/03/02 00:35:19;;;;;;;19.75;7.85;;;;;;;;;;6193382;23;20067;-94
2023/03/02 00:37:45;;;;;;;14.85;8.07;;;;;;;;;;6170912;23;20040;-96
2023/03/02 00:40:11;;;;;;;13.18;6.88;;;;;;;;;;6198654;23;20033;-93
2023/03/02 00:42:38;;;;;;;17.42;7.63;;;;;;;;;;6206058;23;20016;-93
2023/03/02 00:45:05;;;;;;;15.48;8.25;;;;;;;;;;6202206;23;20015;-93
2023/03/02 00:47:34;;;;;;;23.90;8.10;;;;;;;;;;6201425;23;20625;-94
2023/03/02 00:50:00;;;;;;;13.68;7.07;;;;;;;;;;6201403;23;20012;-93
2023/03/02 00:52:26;;;;;;;15.30;7.20;;;;;;;;;;6197273;23;20009;-93
2023/03/02 00:54:52;;;;;;;15.98;7.90;;;;;;;;;;6169609;23;20431;-93
2023/03/02 00:57:19;;;;;;;12.82;7.75;;;;;;;;;;6166124;23;20025;-93
2023/03/02 00:59:45;;;;;;;14.80;7.43;;;;;;;;;;6164490;23;20005;-93
2023/03/02 01:02:11;;;;;;;15.27;7.45;;;;;;;;;;6165114;23;20312;-93
2023/03/02 01:04:42;;;;;;;17.58;8.50;;;;;;;;;;6165375;23;20005;-94
2023/03/02 01:07:17;;;;;;;13.63;7.78;;;;;;;;;;6190959;23;20402;-94
2023/03/02 01:09:44;;;;;;;16.37;8.73;;;;;;;;;;6190064;23;20005;-94
2023/03/02 01:12:10;;;;;;;18.83;8.27;;;;;;;;;;6191385;23;20004;-94
2023/03/02 01:14:41;;;;;;;19.88;8.95;;;;;;;;;;6165465;23;20005;-93
2023/03/02 01:17:08;;;;;;;22.08;10.30;;;;;;;;;;6190106;23;20013;-93
2023/03/02 01:19:34;;;;;;;25.27;9.80;;;;;;;;;;6166419;23;20009;-94
2023/03/02 01:22:01;;;;;;;22.35;10.98;;;;;;;;;;6189255;23;20027;-93
2023/03/02 01:24:27;;;;;;;21.67;10.13;;;;;;;;;;6189019;23;20015;-93
2023/03/02 01:26:57;;;;;;;24.75;11.68;;;;;;;;;;6163735;23;20017;-94
2023/03/02 01:29:23;;;;;;;22.80;11.52;;;;;;;;;;6189672;23;20001;-93
2023/03/02 01:31:52;;;;;;;26.15;11.50;;;;;;;;;;6165450;23;20375;-94
2023/03/02 01:34:18;;;;;;;22.15;11.30;;;;;;;;;;6163650;23;20013;-93
2023/03/02 01:36:44;;;;;;;22.13;10.85;;;;;;;;;;6164229;23;20013;-93
2023/03/02 01:39:14;;;;;;;26.10;11.88;;;;;;;;;;6164151;23;20092;-94
2023/03/02 01:41:41;;;;;;;26.23;11.85;;;;;;;;;;6164428;23;20009;-94
2023/03/02 01:44:27;;;;;;;30.27;12.25;;;;;;;;;;6162701;23;20398;-94
2023/03/02 01:46:53;;;;;;;28.88;12.77;;;;;;;;;;6187569;23;20439;-94
2023/03/02 01:49:20;;;;;;;28.90;13.27;;;;;;;;;;6162570;23;19998;-94
2023/03/02 01:51:47;;;;;;;31.33;13.15;;;;;;;;;;6187872;23;20001;-94
2023/03/02 01:54:16;;;;;;;29.35;12.13;;;;;;;;;;6187032;23;20015;-93
2023/03/02 01:56:44;;;;;;;24.73;12.77;;;;;;;;;;6186566;23;20009;-93
2023/03/02 01:59:13;;;;;;;29.13;13.23;;;;;;;;;;6186233;23;20020;-92
2023/03/02 02:01:40;;;;;;;30.17;13.38;;;;;;;;;;6188738;23;20067;-93
2023/03/02 02:04:07;;;;;;;32.95;15.50;;;;;;;;;;6188492;23;20434;-93
2023/03/02 02:06:48;;;;;;;35.58;14.40;;;;;;;;;;6188762;23;20097;-93
2023/03/02 02:09:17;;;;;;;30.10;13.75;;;;;;;;;;6189990;23;20063;-93
2023/03/02 02:11:46;;;;;;;33.83;14.07;;;;;;;;;;6188886;23;20070;-93
2023/03/02 02:14:12;;;;;;;31.77;13.13;;;;;;;;;;6189833;23;20009;-93
2023/03/02 02:16:40;;;;;;;32.53;14.43;;;;;;;;;;6188301;23;20508;-93
2023/03/02 02:19:24;;;;;;;35.15;14.30;;;;;;;;;;6188312;23;20005;-93
2023/03/02 02:21:50;;;;;;;40.63;16.75;;;;;;;;;;6189653;23;20013;-93
2023/03/02 02:24:32;;;;;;;37.58;14.98;;;;;;;;;;6189007;23;20017;-92
2023/03/02 02:26:59;;;;;;;31.83;12.15;;;;;;;;;;6187425;23;20415;-93
2023/03/02 02:29:44;;;;;;;31.80;14.32;;;;;;;;;;6164525;23;20039;-93
2023/03/02 02:32:23;;;;;;;29.63;13.70;;;;;;;;;;6186736;23;20017;-93
2023/03/02 02:34:55;;;;;;;32.67;15.07;;;;;;;;;;6187714;23;20418;-93
2023/03/02 02:37:23;;;;;;;38.58;15.20;;;;;;;;;;6188852;23;20009;-93
2023/03/02 02:39:52;;;;;;;41.05;15.88;;;;;;;;;;6189768;23;20028;-94
2023/03/02 02:42:30;;;;;;;36.55;16.75;;;;;;;;;;6189442;23;20017;-93
2023/03/02 02:45:05;;;;;;;47.95;17.77;;;;;;;;;;6188434;23;20064;-93
2023/03/02 02:47:32;;;;;;;40.22;15.90;;;;;;;;;;6191116;23;20036;-94
2023/03/02 02:49:58;;;;;;;49.00;18.27;;;;;;;;;;6191177;23;20088;-93
2023/03/02 02:52:26;;;;;;;55.97;20.20;;;;;;;;;;6168872;23;20067;-94
2023/03/02 02:54:54;;;;;;;57.63;21.25;;;;;;;;;;6193726;23;20481;-93
2023/03/02 02:57:24;;;;;;;62.03;19.95;;;;;;;;;;6195265;23;20017;-93
2023/03/02 02:59:58;;;;;;;54.90;19.10;;;;;;;;;;6200308;23;20029;-93
2023/03/02 03:02:26;;;;;;;56.95;21.45;;;;;;;;;;6206696;23;19998;-95
2023/03/02 03:05:01;;;;;;;64.35;22.70;;;;;;;;;;6207000;23;20016;-93
2023/03/02 03:07:27;;;;;;;65.60;23.17;;;;;;;;;;6183582;23;20020;-93
2023/03/02 03:09:56;;;;;;;63.53;21.75;;;;;;;;;;6179644;23;20028;-92
2023/03/02 03:12:27;;;;;;;64.78;21.50;;;;;;;;;;6189506;23;20022;-92
2023/03/02 03:14:54;;;;;;;61.53;23.40;;;;;;;;;;6186894;23;20009;-93
2023/03/02 03:17:20;;;;;;;58.25;22.15;;;;;;;;;;6187651;23;20406;-92
2023/03/02 03:19:46;;;;;;;67.45;24.27;;;;;;;;;;6161550;23;20226;-93
2023/03/02 03:22:14;;;;;;;62.55;23.08;;;;;;;;;;6186935;23;20013;-93
2023/03/02 03:24:44;;;;;;;57.72;21.80;;;;;;;;;;6185060;23;20009;-93
2023/03/02 03:27:15;;;;;;;60.30;22.80;;;;;;;;;;6186529;23;20092;-93
2023/03/02 03:29:43;;;;;;;63.13;23.27;;;;;;;;;;6186877;23;20060;-93
2023/03/02 03:32:09;;;;;;;58.42;22.50;;;;;;;;;;6186533;23;20028;-93
2023/03/02 03:34:39;;;;;;;50.72;20.25;;;;;;;;;;6161383;23;20032;-93
2023/03/02 03:37:07;;;;;;;64.25;22.85;;;;;;;;;;6186484;23;20005;-93
2023/03/02 03:39:33;;;;;;;49.50;20.75;;;;;;;;;;6186811;23;20019;-94
2023/03/02 03:42:00;;;;;;;63.10;21.17;;;;;;;;;;6162515;23;20041;-94
2023/03/02 03:44:26;;;;;;;61.58;21.17;;;;;;;;;;6162170;23;20490;-93
2023/03/02 03:46:52;;;;;;;50.75;21.42;;;;;;;;;;6162104;23;20021;-93
2023/03/02 03:49:18;;;;;;;46.80;20.50;;;;;;;;;;6159420;23;20017;-94
2023/03/02 03:51:44;;;;;;;48.55;20.20;;;;;;;;;;6159071;23;20171;-94
2023/03/02 03:54:11;;;;;;;42.03;19.35;;;;;;;;;;6160910;23;20380;-94
2023/03/02 03:56:41;;;;;;;47.72;19.05;;;;;;;;;;6186241;23;20013;-93
2023/03/02 03:59:13;;;;;;;49.45;18.80;;;;;;;;;;6185630;23;20055;-93
2023/03/02 04:01:41;;;;;;;56.25;20.38;;;;;;;;;;6186401;23;20488;-94
2023/03/02 04:04:09;;;;;;;56.60;20.35;;;;;;;;;;6185795;23;20005;-91
2023/03/02 04:06:35;;;;;;;53.58;20.13;;;;;;;;;;6195704;23;20082;-92
2023/03/02 04:09:03;;;;;;;53.40;20.50;;;;;;;;;;6207322;23;20025;-93
2023/03/02 04:11:37;;;;;;;53.92;19.80;;;;;;;;;;6204168;23;20058;-92
2023/03/02 04:14:03;;;;;;;47.70;19.20;;;;;;;;;;6200139;23;19993;-91
2023/03/02 04:16:30;;;;;;;61.10;20.90;;;;;;;;;;6196306;23;20487;-93
2023/03/02 04:18:56;;;;;;;64.50;22.85;;;;;;;;;;6167160;23;20400;-93
2023/03/02 04:21:23;;;;;;;57.58;20.33;;;;;;;;;;6190868;23;20087;-94
2023/03/02 04:23:50;;;;;;;63.08;21.25;;;;;;;;;;6192578;23;20055;-93
2023/03/02 04:26:16;;;;;;;75.97;23.52;;;;;;;;;;6165295;23;20453;-93
2023/03/02 04:28:42;;;;;;;105.30;24.25;;;;;;;;;;6186215;23;20024;-93
2023/03/02 04:31:08;;;;;;;75.55;24.30;;;;;;;;;;6185604;23;20005;-93
2023/03/02 04:33:34;;;;;;;68.20;23.67;;;;;;;;;;6162027;23;20146;-93
2023/03/02 04:36:01;;;;;;;72.20;20.25;;;;;;;;;;6161204;23;20446;-92
2023/03/02 04:38:28;;;;;;;85.75;23.05;;;;;;;;;;6186302;23;20032;-93
2023/03/02 04:40:57;;;;;;;63.58;20.33;;;;;;;;;;6186569;23;20093;-93
2023/03/02 04:43:24;;;;;;;122.07;24.95;;;;;;;;;;6162279;23;20084;-93
2023/03/02 04:45:51;;;;;;;94.82;24.05;;;;;;;;;;6188712;22;20391;-93
2023/03/02 04:48:17;;;;;;;62.97;21.10;;;;;;;;;;6187186;23;20135;-93
2023/03/02 04:50:44;;;;;;;83.78;23.92;;;;;;;;;;6162085;23;20043;-93
2023/03/02 04:53:11;;;;;;;111.55;24.90;;;;;;;;;;6164515;23;20013;-93
2023/03/02 04:55:37;;;;;;;94.22;22.42;;;;;;;;;;6164028;23;20009;-94
2023/03/02 04:58:07;;;;;;;85.32;21.88;;;;;;;;;;6189124;23;20016;-93
2023/03/02 05:00:34;;;;;;;70.95;20.13;;;;;;;;;;6163617;23;20013;-92
2023/03/02 05:03:03;;;;;;;65.00;22.60;;;;;;;;;;6187360;23;20009;-93
2023/03/02 05:05:30;;;;;;;80.38;22.52;;;;;;;;;;6188095;23;20040;-94
2023/03/02 05:07:57;;;;;;;72.07;20.90;;;;;;;;;;6162475;23;20032;-93
2023/03/02 05:10:24;;;;;;;77.82;21.35;;;;;;;;;;6164172;23;20487;-93
2023/03/02 05:13:08;;;;;;;64.30;20.58;;;;;;;;;;6164077;23;20009;-92
2023/03/02 05:15:38;;;;;;;123.05;20.98;;;;;;;;;;6188071;23;20387;-93
2023/03/02 05:18:05;;;;;;;62.42;18.58;;;;;;;;;;6189751;23;20012;-93
2023/03/02 05:20:34;;;;;;;100.53;21.13;;;;;;;;;;6189631;23;20076;-93
2023/03/02 05:23:02;;;;;;;59.05;19.42;;;;;;;;;;6165527;23;20013;-92
2023/03/02 05:25:29;;;;;;;65.80;20.38;;;;;;;;;;6190259;23;20016;-92
2023/03/02 05:27:55;;;;;;;65.93;21.27;;;;;;;;;;6164165;23;20015;-93
2023/03/02 05:30:22;;;;;;;96.68;20.00;;;;;;;;;;6188927;23;20001;-93
2023/03/02 05:32:49;;;;;;;56.10;16.88;;;;;;;;;;6164733;23;20059;-94
2023/03/02 05:35:16;;;;;;;77.03;19.77;;;;;;;;;;6187173;23;20312;-93
2023/03/02 05:37:43;;;;;;;64.40;17.27;;;;;;;;;;6186256;23;20498;-92
2023/03/02 05:40:11;;;;;;;59.28;17.80;;;;;;;;;;6162315;23;20040;-93
2023/03/02 05:42:37;;;;;;;69.93;17.80;;;;;;;;;;6186999;23;20017;-93
2023/03/02 05:45:04;;;;;;;63.03;16.20;;;;;;;;;;6162906;23;20275;-92
2023/03/02 05:47:30;;;;;;;69.68;18.98;;;;;;;;;;6186767;23;20213;-92
2023/03/02 05:49:56;;;;;;;75.25;16.38;;;;;;;;;;6187376;23;20016;-92
2023/03/02 05:52:22;;;;;;;101.22;17.45;;;;;;;;;;6187851;23;20072;-93
2023/03/02 05:54:48;;;;;;;80.28;17.60;;;;;;;;;;6163057;23;20017;-92
2023/03/02 05:57:14;;;;;;;81.32;18.05;;;;;;;;;;6162418;23;20096;-93
2023/03/02 05:59:41;;;;;;;64.80;19.17;;;;;;;;;;6161813;23;20017;-93
2023/03/02 06:02:07;;;;;;;68.50;18.33;;;;;;;;;;6188531;23;20439;-93
2023/03/02 06:04:33;;;;;;;64.20;20.38;;;;;;;;;;6164039;23;20461;-93
2023/03/02 06:06:59;;;;;;;55.10;17.02;;;;;;;;;;6187272;23;20359;-91
2023/03/02 06:09:25;;;;;;;100.68;21.35;;;;;;;;;;6165707;23;20092;-92
2023/03/02 06:11:51;;;;;;;108.50;19.33;;;;;;;;;;6166105;23;20079;-92
2023/03/02 06:14:17;;;;;;;89.05;19.70;;;;;;;;;;6190779;23;20055;-93
2023/03/02 06:16:44;;;;;;;55.72;19.17;;;;;;;;;;6168361;23;20104;-91
2023/03/02 06:19:10;;;;;;;114.22;20.92;;;;;;;;;;6168829;23;20020;-90
2023/03/02 06:21:42;;;;;;;105.88;21.10;;;;;;;;;;6169551;23;20012;-91
2023/03/02 06:24:08;;;;;;;58.53;19.60;;;;;;;;;;6172653;23;20001;-92
2023/03/02 06:26:35;;;;;;;88.55;19.35;;;;;;;;;;6182553;23;20320;-93
2023/03/02 06:29:01;;;;;;;73.97;20.85;;;;;;;;;;6183270;23;20119;-92
2023/03/02 06:31:27;;;;;;;77.20;23.15;;;;;;;;;;6183926;23;20013;-92
2023/03/02 06:33:53;;;;;;;88.65;20.23;;;;;;;;;;6181343;23;20005;-94
2023/03/02 06:36:19;;;;;;;56.28;16.65;;;;;;;;;;6168493;23;20035;-92
2023/03/02 06:38:45;;;;;;;59.40;18.17;;;;;;;;;;6189697;23;20009;-92
2023/03/02 06:41:11;;;;;;;95.72;19.63;;;;;;;;;;6187113;23;20017;-93
2023/03/02 06:43:37;;;;;;;76.82;18.73;;;;;;;;;;6162480;23;20055;-93
2023/03/02 06:46:03;;;;;;;84.90;20.48;;;;;;;;;;6189215;22;20033;-93
2023/03/02 06:48:29;;;;;;;57.63;19.05;;;;;;;;;;6162508;23;20045;-92
2023/03/02 06:50:55;;;;;;;78.63;16.67;;;;;;;;;;6162218;23;20013;-92
2023/03/02 06:53:22;;;;;;;140.90;20.35;;;;;;;;;;6185957;23;20016;-92
2023/03/02 06:55:51;;;;;;;54.15;17.83;;;;;;;;;;6162375;23;20438;-93
2023/03/02 06:58:20;;;;;;;71.95;16.17;;;;;;;;;;6185460;23;20017;-92
2023/03/02 07:00:46;;;;;;;80.40;17.85;;;;;;;;;;6161618;23;20044;-92
2023/03/02 07:03:12;;;;;;;76.63;17.60;;;;;;;;;;6161340;23;20446;-93
2023/03/02 07:05:38;;;;;;;50.53;15.93;;;;;;;;;;6162278;23;20009;-93
2023/03/02 07:08:04;;;;;;;63.90;15.70;;;;;;;;;;6160842;23;20017;-92
2023/03/02 07:10:32;;;;;;;88.47;18.20;;;;;;;;;;6187011;23;20447;-92
2023/03/02 07:12:58;;;;;;;83.53;18.83;;;;;;;;;;6161095;23;20025;-92
2023/03/02 07:15:24;;;;;;;81.28;20.00;;;;;;;;;;6184776;23;20005;-92
2023/03/02 07:17:50;;;;;;;83.72;18.75;;;;;;;;;;6161678;23;20013;-92
2023/03/02 07:20:17;;;;;;;92.28;17.02;;;;;;;;;;6161785;23;20229;-92
2023/03/02 07:22:44;;;;;;;74.13;17.02;;;;;;;;;;6186658;23;20005;-92
2023/03/02 07:25:10;;;;;;;112.13;18.15;;;;;;;;;;6186431;23;20044;-93
2023/03/02 07:27:37;;;;;;;109.53;19.45;;;;;;;;;;6185156;23;20056;-92
2023/03/02 07:30:04;;;;;;;62.75;18.60;;;;;;;;;;6161561;23;20013;-93
2023/03/02 07:32:30;;;;;;;63.40;17.65;;;;;;;;;;6186678;23;20094;-92
2023/03/02 07:34:56;;;;;;;93.65;19.13;;;;;;;;;;6188612;23;20005;-92
2023/03/02 07:37:22;;;;;;;49.80;17.77;;;;;;;;;;6188500;23;20016;-92
2023/03/02 07:39:49;;;;;;;83.78;19.63;;;;;;;;;;6165088;23;20013;-93
2023/03/02 07:42:15;;;;;;;64.10;18.67;;;;;;;;;;6169014;23;20024;-93
2023/03/02 07:44:42;;;;;;;69.30;17.98;;;;;;;;;;6196013;23;20036;-92
2023/03/02 07:47:08;;;;;;;93.43;18.85;;;;;;;;;;6179300;23;20055;-93
2023/03/02 07:49:34;;;;;;;73.82;19.85;;;;;;;;;;6182276;23;20144;-92
2023/03/02 07:52:01;;;;;;;63.13;18.27;;;;;;;;;;6179335;23;20009;-93
2023/03/02 07:54:29;;;;;;;75.80;20.25;;;;;;;;;;6181625;23;20016;-93
2023/03/02 07:56:55;;;;;;;62.42;19.13;;;;;;;;;;6204506;23;20005;-92
2023/03/02 07:59:22;;;;;;;81.25;20.35;;;;;;;;;;6196276;23;20032;-93
2023/03/02 08:01:48;;;;;;;79.90;21.58;;;;;;;;;;6170322;23;20006;-93
2023/03/02 08:04:14;;;;;;;67.28;19.40;;;;;;;;;;6165078;23;20006;-93
2023/03/02 08:06:40;;;;;;;62.03;20.20;;;;;;;;;;6163800;23;20009;-93
2023/03/02 08:09:06;;;;;;;70.95;19.42;;;;;;;;;;6188051;23;20060;-93
2023/03/02 08:11:34;;;;;;;61.55;18.70;;;;;;;;;;6163036;23;20001;-92
2023/03/02 08:14:04;;;;;;;54.17;16.38;;;;;;;;;;6162211;23;20001;-93
2023/03/02 08:16:30;;;;;;;52.33;16.20;;;;;;;;;;6184998;23;19996;-93
2023/03/02 08:18:57;;;;;;;55.35;15.98;;;;;;;;;;6160236;23;20048;-92
2023/03/02 08:21:24;;;;;;;60.85;16.55;;;;;;;;;;6184291;23;20020;-93
2023/03/02 08:23:50;;;;;;;38.17;13.95;;;;;;;;;;6158564;23;20347;-92
2023/03/02 08:26:17;;;;;;;49.28;14.18;;;;;;;;;;6159621;23;20009;-92
2023/03/02 08:28:43;;;;;;;67.53;14.10;;;;;;;;;;6185453;23;20001;-93
2023/03/02 08:31:10;;;;;;;50.30;16.25;;;;;;;;;;6185196;23;20365;-93
2023/03/02 08:33:36;;;;;;;46.03;16.10;;;;;;;;;;6184194;23;20009;-93
2023/03/02 08:36:07;;;;;;;44.50;13.93;;;;;;;;;;6159055;23;20005;-93
2023/03/02 08:38:34;;;;;;;40.28;14.55;;;;;;;;;;6183502;23;20446;-93
2023/03/02 08:41:06;;;;;;;40.42;13.10;;;;;;;;;;6184028;23;20012;-93
2023/03/02 08:43:33;;;;;;;45.25;14.45;;;;;;;;;;6183099;23;20005;-93
2023/03/02 08:46:06;;;;;;;40.72;14.88;;;;;;;;;;6183469;23;20088;-93
2023/03/02 08:48:32;;;;;;;57.20;14.68;;;;;;;;;;6183665;23;20013;-93
2023/03/02 08:50:59;;;;;;;45.90;13.65;;;;;;;;;;6157944;23;20020;-94
2023/03/02 08:53:28;;;;;;;38.78;13.38;;;;;;;;;;6182370;23;20073;-94
2023/03/02 08:55:54;;;;;;;41.17;14.82;;;;;;;;;;6183113;23;20005;-92
2023/03/02 08:58:20;;;;;;;43.90;15.60;;;;;;;;;;6157369;23;20096;-94
2023/03/02 09:00:46;;;;;;;49.70;14.70;;;;;;;;;;6182241;23;20016;-93
2023/03/02 09:03:13;;;;;;;37.67;14.30;;;;;;;;;;6183854;23;20589;-92
2023/03/02 09:05:59;;;;;;;36.22;14.45;;;;;;;;;;6160455;23;20092;-93
2023/03/02 09:08:25;;;;;;;49.05;15.35;;;;;;;;;;6186124;23;20005;-93
2023/03/02 09:10:55;;;;;;;31.20;13.95;;;;;;;;;;6161057;23;20005;-93
2023/03/02 09:13:21;;;;;;;36.30;14.30;;;;;;;;;;6161679;23;20076;-92
2023/03/02 09:15:51;;;;;;;53.92;14.52;;;;;;;;;;6159757;23;20013;-94
2023/03/02 09:18:17;;;;;;;40.70;14.90;;;;;;;;;;6185465;23;20399;-93
2023/03/02 09:20:43;;;;;;;39.80;16.00;;;;;;;;;;6159708;23;20480;-92
2023/03/02 09:23:11;;;;;;;38.60;15.77;;;;;;;;;;6161248;23;20075;-93
2023/03/02 09:25:37;;;;;;;37.95;16.05;;;;;;;;;;6184886;23;20009;-94
2023/03/02 09:28:03;;;;;;;40.53;13.95;;;;;;;;;;6161207;23;20049;-93
2023/03/02 09:30:31;;;;;;;49.60;14.77;;;;;;;;;;6161505;23;20413;-93
2023/03/02 09:32:58;;;;;;;39.03;15.23;;;;;;;;;;6187104;23;20078;-95
2023/03/02 09:35:24;;;;;;;47.03;16.65;;;;;;;;;;6186369;23;20001;-93
2023/03/02 09:37:50;;;;;;;41.47;15.65;;;;;;;;;;6187322;23;20012;-91
2023/03/02 09:40:19;;;;;;;46.83;17.25;;;;;;;;;;6163073;23;20013;-94
2023/03/02 09:42:51;;;;;;;45.38;16.17;;;;;;;;;;6188798;23;20012;-92
2023/03/02 09:45:29;;;;;;;52.47;16.60;;;;;;;;;;6188677;23;20013;-92
2023/03/02 09:48:11;;;;;;;46.13;16.13;;;;;;;;;;6192527;23;20154;-94
2023/03/02 09:50:39;;;;;;;46.90;16.27;;;;;;;;;;6197177;23;20020;-94
2023/03/02 09:53:06;;;;;;;44.38;15.57;;;;;;;;;;6200425;23;20028;-94
2023/03/02 09:55:37;;;;;;;42.42;15.43;;;;;;;;;;6196740;23;20000;-94
2023/03/02 09:58:15;;;;;;;41.85;15.38;;;;;;;;;;6194734;23;20005;-94
2023/03/02 10:00:42;;;;;;;42.03;14.35;;;;;;;;;;6187450;23;20333;-94
2023/03/02 10:03:20;;;;;;;34.47;14.05;;;;;;;;;;6185955;23;20009;-94
2023/03/02 10:05:58;;;;;;;39.10;13.85;;;;;;;;;;6183940;23;20013;-93
2023/03/02 10:08:30;;;;;;;42.13;13.70;;;;;;;;;;6184349;23;20013;-93
2023/03/02 10:10:56;;;;;;;32.95;13.38;;;;;;;;;;6185124;23;20001;-93
2023/03/02 10:13:25;;;;;;;29.17;12.32;;;;;;;;;;6186773;23;20012;-93
2023/03/02 10:15:57;;;;;;;26.88;11.90;;;;;;;;;;6183294;23;20033;-95
2023/03/02 10:18:28;;;;;;;27.17;11.98;;;;;;;;;;6183240;23;20015;-94
2023/03/02 10:20:54;;;;;;;27.02;11.70;;;;;;;;;;6183322;23;20016;-93
2023/03/02 10:23:43;;;;;;;24.40;11.85;;;;;;;;;;6183339;23;20179;-94
2023/03/02 10:26:29;;;;;;;25.88;10.70;;;;;;;;;;6184447;23;20009;-93
2023/03/02 10:29:02;;;;;;;29.50;11.60;;;;;;;;;;6186084;23;20113;-93
2023/03/02 10:31:31;;;;;;;27.92;10.70;;;;;;;;;;6160868;23;20009;-94
2023/03/02 10:33:58;;;;;;;25.17;10.90;;;;;;;;;;6183922;23;20008;-92
2023/03/02 10:36:28;;;;;;;25.90;11.13;;;;;;;;;;6157731;23;20009;-94
2023/03/02 10:38:55;;;;;;;29.85;11.00;;;;;;;;;;6183807;23;20009;-94
2023/03/02 10:41:25;;;;;;;23.95;10.75;;;;;;;;;;6184043;23;20016;-94
2023/03/02 10:43:52;;;;;;;26.85;11.80;;;;;;;;;;6182999;23;20008;-94
2023/03/02 10:46:18;;;;;;;24.83;10.82;;;;;;;;;;6183212;23;20347;-94
2023/03/02 10:48:57;;;;;;;26.88;11.02;;;;;;;;;;6184495;23;20036;-93
2023/03/02 10:51:23;;;;;;;19.48;9.73;;;;;;;;;;6183060;23;20009;-94
2023/03/02 10:53:49;;;;;;;19.02;9.10;;;;;;;;;;6185003;23;20005;-93
2023/03/02 10:56:20;;;;;;;25.05;9.43;;;;;;;;;;6183152;23;20014;-94
2023/03/02 10:58:47;;;;;;;25.30;10.85;;;;;;;;;;6185511;23;20377;-94
2023/03/02 11:01:16;;;;;;;23.08;10.77;;;;;;;;;;6160261;23;20320;-94
2023/03/02 11:03:42;;;;;;;19.23;10.48;;;;;;;;;;6186225;23;20420;-94
2023/03/02 11:06:19;;;;;;;21.05;10.23;;;;;;;;;;6185241;23;20009;-94
2023/03/02 11:08:45;;;;;;;19.30;8.70;;;;;;;;;;6186165;23;20001;-93
2023/03/02 11:11:21;;;;;;;19.92;9.30;;;;;;;;;;6162135;23;20005;-94
2023/03/02 11:13:47;;;;;;;19.08;9.05;;;;;;;;;;6163463;23;20020;-94
2023/03/02 11:16:19;;;;;;;24.55;11.60;;;;;;;;;;6163728;23;20005;-94
2023/03/02 11:18:45;;;;;;;22.90;9.20;;;;;;;;;;6190556;23;20040;-96
2023/03/02 11:21:18;;;;;;;23.50;10.60;;;;;;;;;;6192269;23;20123;-96
2023/03/02 11:24:03;;;;;;;19.58;9.57;;;;;;;;;;6194821;23;20035;-93
2023/03/02 11:26:32;;;;;;;17.45;8.82;;;;;;;;;;6201188;23;20009;-94
2023/03/02 11:29:00;;;;;;;18.98;9.63;;;;;;;;;;6201116;23;20000;-94
2023/03/02 11:31:33;;;;;;;18.45;9.80;;;;;;;;;;6199919;23;20004;-94
2023/03/02 11:34:18;;;;;;;17.02;8.70;;;;;;;;;;6198320;23;20028;-94
2023/03/02 11:36:44;;;;;;;18.77;9.57;;;;;;;;;;6192370;23;20434;-95
2023/03/02 11:39:20;;;;;;;17.63;8.52;;;;;;;;;;6189027;23;20012;-94
2023/03/02 11:41:46;;;;;;;;;;;;;;;;;;6186703;23;20074;-94
2023/03/02 11:44:17;;;;;;;18.52;9.52;;;;;;;;;;6187734;23;19900;-94
2023/03/02 11:46:45;;;;;;;16.92;10.18;;;;;;;;;;6185745;23;20036;-94
2023/03/02 11:49:14;;;;;;;14.48;8.77;;;;;;;;;;6186246;23;20028;-94
2023/03/02 11:51:44;;;;;;;19.00;9.52;;;;;;;;;;6184787;23;20018;-94
2023/03/02 11:54:29;;;;;;;18.73;10.38;;;;;;;;;;6185578;23;20024;-94
2023/03/02 11:56:55;;;;;;;17.95;9.82;;;;;;;;;;6185491;23;20001;-94
2023/03/02 11:59:23;;;;;;;19.08;10.30;;;;;;;;;;6186540;23;20001;-94
2023/03/02 12:01:50;;;;;;;21.88;10.70;;;;;;;;;;6184336;23;20028;-94
2023/03/02 12:04:27;;;;;;;20.15;10.30;;;;;;;;;;6183137;23;20005;-93
2023/03/02 12:06:54;;;;;;;18.65;9.20;;;;;;;;;;6183131;23;20024;-94
2023/03/02 12:09:23;;;;;;;21.50;10.80;;;;;;;;;;6158851;23;20729;-94
2023/03/02 12:12:19;;;;;;;19.95;10.02;;;;;;;;;;6185908;23;20005;-94
2023/03/02 12:14:45;;;;;;;17.48;8.60;;;;;;;;;;6107451;23;20017;-93
2023/03/02 12:17:30;;;;;;;16.05;8.73;;;;;;;;;;6181457;23;20009;-94
2023/03/02 12:20:10;;;;;;;18.58;9.35;;;;;;;;;;6183154;23;20015;-94
2023/03/02 12:22:36;;;;;;;21.70;9.23;;;;;;;;;;6182123;23;20016;-93
2023/03/02 12:25:26;;;;;;;16.73;8.13;;;;;;;;;;6155638;23;20013;-93
2023/03/02 12:27:53;;;;;;;17.00;9.25;;;;;;;;;;6166662;23;20008;-93
2023/03/02 12:30:23;;;;;;;15.88;8.80;;;;;;;;;;6179921;23;20017;-93
2023/03/02 12:33:03;;;;;;;20.02;10.25;;;;;;;;;;6181108;23;20012;-94
2023/03/02 12:35:34;;;;;;;21.65;10.32;;;;;;;;;;6180588;23;20442;-93
2023/03/02 12:38:03;;;;;;;16.33;8.80;;;;;;;;;;6156174;23;20020;-94
2023/03/02 12:40:45;;;;;;;15.52;8.52;;;;;;;;;;6184068;23;20009;-94
2023/03/02 12:43:11;;;;;;;17.70;9.07;;;;;;;;;;6183098;23;20012;-94
2023/03/02 12:45:59;;;;;;;17.67;9.15;;;;;;;;;;6182875;23;20009;-94
2023/03/02 12:48:44;;;;;;;19.15;9.23;;;;;;;;;;6181926;23;20454;-94
2023/03/02 12:51:18;;;;;;;18.35;8.90;;;;;;;;;;6183016;23;20075;-94
2023/03/02 12:53:45;;;;;;;15.77;8.65;;;;;;;;;;6182859;23;20039;-93
2023/03/02 12:56:21;;;;;;;13.05;8.13;;;;;;;;;;6183322;23;20001;-93
2023/03/02 12:58:52;;;;;;;15.68;9.45;;;;;;;;;;6182595;23;20005;-93
2023/03/02 13:01:22;;;;;;;16.20;9.73;;;;;;;;;;6158430;23;20090;-94
2023/03/02 13:03:49;;;;;;;14.43;8.57;;;;;;;;;;6183166;23;20087;-94
2023/03/02 13:06:19;;;;;;;15.15;8.40;;;;;;;;;;6157658;23;20435;-94
2023/03/02 13:08:51;;;;;;;14.18;8.38;;;;;;;;;;6183615;23;20355;-93
2023/03/02 13:11:26;;;;;;;13.57;8.13;;;;;;;;;;6183412;23;19997;-94
2023/03/02 13:13:53;;;;;;;15.23;8.43;;;;;;;;;;6183831;23;20009;-94
2023/03/02 13:16:22;;;;;;;13.10;7.88;;;;;;;;;;6158341;23;20013;-94
2023/03/02 13:18:55;;;;;;;14.00;8.40;;;;;;;;;;6184423;23;20005;-94
2023/03/02 13:21:33;;;;;;;14.68;8.68;;;;;;;;;;6162184;23;20013;-94
2023/03/02 13:24:00;;;;;;;12.70;8.27;;;;;;;;;;6185771;23;20032;-94
2023/03/02 13:26:28;;;;;;;13.65;7.82;;;;;;;;;;6159575;23;20020;-94
2023/03/02 13:29:21;;;;;;;17.02;8.65;;;;;;;;;;6183501;23;20082;-94
2023/03/02 13:31:48;;;;;;;14.82;9.27;;;;;;;;;;6181649;23;20342;-93
2023/03/02 13:34:33;;;;;;;13.60;8.85;;;;;;;;;;6185722;23;20009;-94
2023/03/02 13:37:00;;;;;;;12.57;8.57;;;;;;;;;;6184028;23;20036;-94
2023/03/02 13:39:28;;;;;;;13.98;8.55;;;;;;;;;;6158768;23;20036;-94
2023/03/02 13:41:58;;;;;;;12.50;8.82;;;;;;;;;;6184681;23;20009;-93
2023/03/02 13:44:37;;;;;;;12.45;8.13;;;;;;;;;;6184717;23;20058;-93
2023/03/02 13:47:25;;;;;;;12.65;8.10;;;;;;;;;;6135175;23;20017;-94
2023/03/02 13:49:51;;;;;;;14.68;8.38;;;;;;;;;;6132374;23;20132;-95
2023/03/02 13:52:23;;;;;;;12.38;8.18;;;;;;;;;;6132409;23;20009;-96
2023/03/02 13:54:53;;;;;;;12.55;8.00;;;;;;;;;;6132098;23;20009;-95
2023/03/02 13:57:31;;;;;;;12.13;8.50;;;;;;;;;;6131543;23;20687;-95
2023/03/02 13:59:58;;;;;;;14.27;8.30;;;;;;;;;;6132094;23;20044;-95
2023/03/02 14:02:25;;;;;;;10.05;7.32;;;;;;;;;;6131103;23;20010;-95
2023/03/02 14:04:52;;;;;;;11.50;8.18;;;;;;;;;;6131318;23;20550;-95
2023/03/02 14:07:19;;;;;;;12.05;8.27;;;;;;;;;;6130391;23;20021;-95
2023/03/02 14:09:46;;;;;;;12.57;8.43;;;;;;;;;;6131619;23;20006;-96
2023/03/02 14:12:26;;;;;;;12.80;8.65;;;;;;;;;;6130411;23;20064;-94
2023/03/02 14:15:00;;;;;;;13.82;9.23;;;;;;;;;;6131256;23;20013;-95
2023/03/02 14:17:26;;;;;;;13.52;8.65;;;;;;;;;;6140300;23;20012;-94
2023/03/02 14:19:54;;;;;;;12.93;8.13;;;;;;;;;;6162618;23;20017;-94
2023/03/02 14:22:20;;;;;;;12.82;7.68;;;;;;;;;;6162977;23;20128;-95
2023/03/02 14:24:47;;;;;;;12.52;7.90;;;;;;;;;;6162447;23;20021;-94
2023/03/02 14:27:17;;;;;;;9.73;6.82;;;;;;;;;;6159898;23;20016;-94
2023/03/02 14:29:46;;;;;;;13.35;7.65;;;;;;;;;;6161785;23;20181;-95
2023/03/02 14:32:13;;;;;;;11.48;7.15;;;;;;;;;;6189088;23;20005;-96